Time;durP1;ratioP1;P1;durP2;ratioP2;P2;SDS_P1;SDS_P2;PMS_P1;PMS_P2;Temp;Humidity;BMP_temperature;BMP_pressure;BME280_temperature;BME280_humidity;BME280_pressure;Samples;Min_cycle;Max_cycle;Signal;HPM_P1;HPM_P2
2022/03/05 00:02:07;;;;;;;11.25;7.68;;;;;;;;;;5009114;28;20475;-74
2022/03/05 00:04:33;;;;;;;12.73;7.85;;;;;;;;;;5008058;28;20087;-75
2022/03/05 00:06:59;;;;;;;11.82;8.02;;;;;;;;;;5006276;28;20194;-74
2022/03/05 00:09:26;;;;;;;11.02;7.32;;;;;;;;;;5012285;28;20108;-74
2022/03/05 00:11:52;;;;;;;15.70;8.10;;;;;;;;;;5010061;28;20510;-74
2022/03/05 00:14:18;;;;;;;24.92;11.75;;;;;;;;;;5009547;28;20026;-74
2022/03/05 00:16:44;;;;;;;22.63;12.25;;;;;;;;;;4995252;28;20022;-73
2022/03/05 00:19:10;;;;;;;18.73;10.05;;;;;;;;;;5012570;28;20479;-73
2022/03/05 00:21:36;;;;;;;18.95;10.77;;;;;;;;;;5006148;28;20399;-73
2022/03/05 00:24:02;;;;;;;14.98;10.40;;;;;;;;;;5009269;28;20056;-74
2022/03/05 00:26:28;;;;;;;20.75;11.85;;;;;;;;;;5006928;28;20506;-73
2022/03/05 00:28:55;;;;;;;20.25;12.38;;;;;;;;;;5004598;28;20053;-73
2022/03/05 00:31:21;;;;;;;26.90;13.18;;;;;;;;;;5011773;28;20698;-74
2022/03/05 00:33:47;;;;;;;22.38;12.60;;;;;;;;;;5010262;28;20045;-74
2022/03/05 00:36:13;;;;;;;27.02;14.55;;;;;;;;;;5003827;28;20036;-74
2022/03/05 00:38:39;;;;;;;28.05;14.10;;;;;;;;;;5012457;28;20025;-74
2022/03/05 00:41:05;;;;;;;27.63;13.30;;;;;;;;;;5009772;28;20033;-74
2022/03/05 00:43:31;;;;;;;27.48;14.15;;;;;;;;;;5010348;28;20018;-74
2022/03/05 00:45:57;;;;;;;26.23;13.98;;;;;;;;;;5011073;28;20030;-73
2022/03/05 00:48:23;;;;;;;24.10;12.90;;;;;;;;;;5010684;28;20022;-73
2022/03/05 00:50:50;;;;;;;22.55;12.27;;;;;;;;;;5011525;28;20030;-73
2022/03/05 00:53:17;;;;;;;17.13;11.07;;;;;;;;;;4992438;28;20057;-74
2022/03/05 00:55:44;;;;;;;16.42;9.05;;;;;;;;;;5009810;28;20034;-74
2022/03/05 00:58:10;;;;;;;14.60;8.77;;;;;;;;;;5006770;28;20026;-74
2022/03/05 01:00:36;;;;;;;14.10;8.00;;;;;;;;;;5009647;28;20026;-74
2022/03/05 01:03:03;;;;;;;11.88;8.13;;;;;;;;;;4994902;28;20113;-74
2022/03/05 01:05:29;;;;;;;11.13;6.93;;;;;;;;;;4984529;28;20026;-74
2022/03/05 01:07:55;;;;;;;10.27;6.65;;;;;;;;;;5010541;28;20022;-73
2022/03/05 01:10:21;;;;;;;10.98;6.90;;;;;;;;;;5010438;28;20109;-74
2022/03/05 01:12:47;;;;;;;11.93;7.13;;;;;;;;;;5011365;28;20445;-74
2022/03/05 01:15:13;;;;;;;13.15;7.07;;;;;;;;;;5009984;28;20034;-75
2022/03/05 01:17:39;;;;;;;10.57;6.50;;;;;;;;;;5016493;28;20751;-75
2022/03/05 01:20:05;;;;;;;12.32;7.07;;;;;;;;;;5010943;28;20064;-75
2022/03/05 01:22:32;;;;;;;15.48;7.78;;;;;;;;;;4991713;28;20022;-74
2022/03/05 01:24:58;;;;;;;12.77;7.30;;;;;;;;;;5003314;28;20034;-75
2022/03/05 01:27:24;;;;;;;14.27;7.82;;;;;;;;;;5010273;28;20029;-74
2022/03/05 01:29:50;;;;;;;11.65;6.47;;;;;;;;;;5008367;28;20544;-75
2022/03/05 01:32:16;;;;;;;11.50;6.85;;;;;;;;;;4990471;28;20483;-75
2022/03/05 01:34:43;;;;;;;14.77;6.85;;;;;;;;;;5008989;28;20052;-73
2022/03/05 01:37:09;;;;;;;16.00;9.25;;;;;;;;;;5009407;28;20040;-75
2022/03/05 01:39:35;;;;;;;12.43;8.68;;;;;;;;;;5010201;28;20029;-74
2022/03/05 01:42:01;;;;;;;12.57;8.27;;;;;;;;;;5010541;28;20053;-74
2022/03/05 01:44:27;;;;;;;11.45;8.13;;;;;;;;;;5005527;28;20076;-73
2022/03/05 01:46:54;;;;;;;10.80;7.05;;;;;;;;;;5009581;28;20026;-74
2022/03/05 01:49:20;;;;;;;11.40;6.82;;;;;;;;;;5005720;28;20109;-74
2022/03/05 01:51:46;;;;;;;10.38;7.80;;;;;;;;;;5009661;28;20446;-73
2022/03/05 01:54:13;;;;;;;12.27;7.35;;;;;;;;;;5009949;28;20030;-73
2022/03/05 01:56:40;;;;;;;12.70;8.02;;;;;;;;;;5009593;28;20506;-74
2022/03/05 01:59:08;;;;;;;13.80;9.05;;;;;;;;;;5009907;28;20025;-74
2022/03/05 02:01:34;;;;;;;13.73;8.45;;;;;;;;;;5012252;28;20022;-73
2022/03/05 02:04:00;;;;;;;16.77;9.85;;;;;;;;;;5008633;28;20475;-73
2022/03/05 02:06:26;;;;;;;16.48;9.60;;;;;;;;;;5008984;28;20029;-74
2022/03/05 02:08:52;;;;;;;19.45;11.13;;;;;;;;;;4990841;28;20022;-74
2022/03/05 02:11:18;;;;;;;19.35;11.05;;;;;;;;;;5009801;28;20088;-73
2022/03/05 02:13:45;;;;;;;30.55;17.20;;;;;;;;;;5006206;28;20033;-73
2022/03/05 02:16:11;;;;;;;15.02;10.25;;;;;;;;;;5009111;28;20058;-73
2022/03/05 02:18:37;;;;;;;12.45;8.70;;;;;;;;;;5005930;28;20036;-74
2022/03/05 02:21:04;;;;;;;12.98;8.82;;;;;;;;;;5002098;28;20034;-73
2022/03/05 02:23:30;;;;;;;13.70;9.27;;;;;;;;;;5009192;28;20807;-74
2022/03/05 02:25:57;;;;;;;14.27;8.77;;;;;;;;;;5008946;28;20392;-74
2022/03/05 02:28:24;;;;;;;14.27;9.27;;;;;;;;;;5004056;28;20069;-74
2022/03/05 02:30:51;;;;;;;12.55;7.72;;;;;;;;;;5000374;28;20061;-74
2022/03/05 02:33:17;;;;;;;16.77;8.23;;;;;;;;;;5009095;28;20041;-73
2022/03/05 02:35:44;;;;;;;10.82;7.18;;;;;;;;;;5009154;28;20038;-73
2022/03/05 02:38:14;;;;;;;12.07;7.07;;;;;;;;;;5009105;28;20116;-73
2022/03/05 02:40:40;;;;;;;12.18;6.72;;;;;;;;;;4990533;28;20126;-73
2022/03/05 02:43:07;;;;;;;9.52;5.57;;;;;;;;;;5006157;28;20032;-73
2022/03/05 02:45:33;;;;;;;9.68;5.93;;;;;;;;;;5008808;28;20053;-73
2022/03/05 02:47:59;;;;;;;8.45;5.90;;;;;;;;;;5002178;28;20026;-73
2022/03/05 02:50:25;;;;;;;10.43;6.20;;;;;;;;;;5008790;28;20026;-73
2022/03/05 02:52:51;;;;;;;10.68;5.35;;;;;;;;;;5008094;28;20061;-73
2022/03/05 02:55:17;;;;;;;8.20;5.38;;;;;;;;;;5007859;28;20436;-73
2022/03/05 02:57:44;;;;;;;6.32;5.20;;;;;;;;;;5007622;28;20391;-73
2022/03/05 03:00:11;;;;;;;9.65;5.60;;;;;;;;;;5010429;28;20030;-72
2022/03/05 03:02:38;;;;;;;8.98;5.35;;;;;;;;;;5008109;28;20033;-73
2022/03/05 03:05:04;;;;;;;8.80;5.07;;;;;;;;;;5007876;28;20100;-74
2022/03/05 03:07:31;;;;;;;8.90;5.68;;;;;;;;;;5007852;28;20348;-73
2022/03/05 03:09:58;;;;;;;6.78;4.90;;;;;;;;;;4992582;28;20040;-73
2022/03/05 03:12:25;;;;;;;5.95;3.85;;;;;;;;;;5006011;28;20425;-74
2022/03/05 03:14:51;;;;;;;8.35;4.85;;;;;;;;;;4989503;28;20533;-73
2022/03/05 03:17:17;;;;;;;5.07;4.15;;;;;;;;;;5005570;28;20042;-73
2022/03/05 03:19:43;;;;;;;7.32;3.67;;;;;;;;;;5003507;28;20038;-73
2022/03/05 03:22:09;;;;;;;5.75;3.88;;;;;;;;;;5011361;28;20053;-73
2022/03/05 03:24:36;;;;;;;8.63;3.78;;;;;;;;;;5010247;28;20108;-73
2022/03/05 03:27:02;;;;;;;7.18;3.95;;;;;;;;;;5010764;28;20033;-72
2022/03/05 03:29:28;;;;;;;6.85;3.97;;;;;;;;;;5011583;28;20064;-73
2022/03/05 03:31:54;;;;;;;10.38;4.88;;;;;;;;;;5008012;28;20057;-72
2022/03/05 03:34:20;;;;;;;8.07;4.18;;;;;;;;;;5008647;28;20038;-73
2022/03/05 03:36:47;;;;;;;6.80;5.25;;;;;;;;;;5010874;28;20041;-73
2022/03/05 03:39:13;;;;;;;8.10;4.93;;;;;;;;;;4986052;28;20442;-73
2022/03/05 03:41:39;;;;;;;7.80;4.80;;;;;;;;;;5001912;28;20023;-73
2022/03/05 03:44:06;;;;;;;6.90;5.30;;;;;;;;;;5010176;28;20042;-72
2022/03/05 03:46:32;;;;;;;11.00;4.93;;;;;;;;;;5009075;28;20022;-73
2022/03/05 03:48:59;;;;;;;8.75;4.95;;;;;;;;;;4993873;28;20484;-73
2022/03/05 03:51:25;;;;;;;6.57;4.70;;;;;;;;;;5009933;28;20053;-72
2022/03/05 03:53:51;;;;;;;8.80;5.22;;;;;;;;;;5005807;28;20037;-73
2022/03/05 03:56:17;;;;;;;9.30;5.47;;;;;;;;;;5006941;28;20026;-73
2022/03/05 03:58:43;;;;;;;6.88;5.00;;;;;;;;;;5009522;28;20040;-73
2022/03/05 04:01:09;;;;;;;8.18;5.05;;;;;;;;;;5005986;28;20033;-74
2022/03/05 04:03:35;;;;;;;8.68;5.32;;;;;;;;;;5010703;28;20053;-74
2022/03/05 04:06:02;;;;;;;10.35;5.47;;;;;;;;;;5010599;28;20498;-74
2022/03/05 04:08:43;;;;;;;8.68;4.95;;;;;;;;;;5008373;28;20068;-73
2022/03/05 04:11:10;;;;;;;6.90;4.85;;;;;;;;;;4991062;28;20034;-73
2022/03/05 04:13:36;;;;;;;7.07;5.00;;;;;;;;;;5006266;28;20026;-73
2022/03/05 04:16:03;;;;;;;7.88;4.97;;;;;;;;;;5010663;28;20057;-73
2022/03/05 04:18:29;;;;;;;12.70;7.40;;;;;;;;;;5010069;28;20040;-73
2022/03/05 04:20:55;;;;;;;8.57;5.43;;;;;;;;;;4993109;28;20030;-73
2022/03/05 04:23:21;;;;;;;7.88;5.13;;;;;;;;;;5010917;28;20042;-72
2022/03/05 04:25:47;;;;;;;7.57;4.60;;;;;;;;;;5009637;28;20030;-73
2022/03/05 04:28:13;;;;;;;8.68;4.97;;;;;;;;;;5008888;28;20022;-74
2022/03/05 04:30:39;;;;;;;10.65;5.90;;;;;;;;;;5009664;28;20037;-73
2022/03/05 04:33:05;;;;;;;11.68;5.20;;;;;;;;;;5010898;28;20053;-74
2022/03/05 04:35:31;;;;;;;9.35;4.78;;;;;;;;;;5009817;28;20671;-73
2022/03/05 04:37:58;;;;;;;8.48;4.78;;;;;;;;;;5010757;28;20638;-74
2022/03/05 04:40:24;;;;;;;8.30;5.18;;;;;;;;;;5008639;28;20035;-74
2022/03/05 04:42:50;;;;;;;8.15;4.80;;;;;;;;;;5008062;28;20037;-74
2022/03/05 04:45:16;;;;;;;5.80;4.78;;;;;;;;;;5003573;28;20029;-73
2022/03/05 04:47:42;;;;;;;8.82;4.55;;;;;;;;;;5010812;28;20083;-74
2022/03/05 04:50:09;;;;;;;11.80;4.60;;;;;;;;;;5009732;28;20399;-73
2022/03/05 04:52:35;;;;;;;8.23;4.28;;;;;;;;;;5010095;28;20040;-73
2022/03/05 04:55:02;;;;;;;9.35;4.40;;;;;;;;;;5007703;28;20104;-72
2022/03/05 04:57:28;;;;;;;6.43;4.07;;;;;;;;;;5010176;28;20056;-73
2022/03/05 04:59:54;;;;;;;8.75;4.25;;;;;;;;;;5010253;28;20032;-72
2022/03/05 05:02:20;;;;;;;4.28;3.55;;;;;;;;;;5012060;28;20022;-73
2022/03/05 05:04:46;;;;;;;8.98;3.92;;;;;;;;;;5011282;28;20034;-73
2022/03/05 05:07:13;;;;;;;4.43;3.88;;;;;;;;;;4984994;28;20030;-73
2022/03/05 05:09:40;;;;;;;8.52;4.50;;;;;;;;;;5008800;28;20033;-73
2022/03/05 05:12:06;;;;;;;7.43;3.75;;;;;;;;;;4990667;28;20088;-73
2022/03/05 05:14:32;;;;;;;5.65;3.83;;;;;;;;;;5003793;28;20036;-73
2022/03/05 05:16:59;;;;;;;7.13;3.67;;;;;;;;;;5006586;28;20041;-73
2022/03/05 05:19:25;;;;;;;5.35;3.58;;;;;;;;;;5009973;28;20034;-73
2022/03/05 05:21:55;;;;;;;9.00;4.20;;;;;;;;;;5008230;28;20480;-73
2022/03/05 05:24:22;;;;;;;7.45;3.70;;;;;;;;;;5010026;28;20100;-73
2022/03/05 05:26:48;;;;;;;7.47;3.95;;;;;;;;;;5009120;28;20026;-73
2022/03/05 05:29:14;;;;;;;5.47;3.67;;;;;;;;;;5010381;28;20048;-73
2022/03/05 05:31:40;;;;;;;4.18;3.70;;;;;;;;;;5009296;28;20030;-73
2022/03/05 05:34:06;;;;;;;7.43;4.07;;;;;;;;;;4992433;28;20487;-73
2022/03/05 05:36:32;;;;;;;11.38;4.40;;;;;;;;;;5007405;28;20022;-73
2022/03/05 05:38:58;;;;;;;6.95;3.67;;;;;;;;;;5008389;28;20033;-72
2022/03/05 05:41:25;;;;;;;12.05;4.72;;;;;;;;;;5008945;28;20491;-73
2022/03/05 05:43:51;;;;;;;5.78;3.55;;;;;;;;;;5009033;28;20022;-73
2022/03/05 05:46:17;;;;;;;5.10;4.00;;;;;;;;;;5009771;28;20403;-73
2022/03/05 05:48:43;;;;;;;4.85;3.85;;;;;;;;;;5009021;28;20148;-73
2022/03/05 05:51:09;;;;;;;9.88;3.88;;;;;;;;;;4987779;28;20037;-73
2022/03/05 05:53:35;;;;;;;5.22;3.15;;;;;;;;;;5007948;28;20072;-73
2022/03/05 05:56:01;;;;;;;7.38;3.63;;;;;;;;;;4996296;28;20034;-73
2022/03/05 05:58:27;;;;;;;5.32;3.55;;;;;;;;;;5007167;28;20483;-73
2022/03/05 06:00:53;;;;;;;5.75;4.60;;;;;;;;;;5007835;28;20442;-73
2022/03/05 06:03:19;;;;;;;9.00;3.72;;;;;;;;;;5008686;28;20018;-73
2022/03/05 06:05:45;;;;;;;9.20;3.72;;;;;;;;;;4991402;28;20064;-73
2022/03/05 06:08:11;;;;;;;6.65;3.33;;;;;;;;;;5008114;28;20096;-72
2022/03/05 06:10:38;;;;;;;6.43;3.90;;;;;;;;;;4988961;28;20320;-74
2022/03/05 06:13:04;;;;;;;6.93;3.60;;;;;;;;;;5002549;28;20042;-73
2022/03/05 06:15:30;;;;;;;7.63;4.30;;;;;;;;;;4995037;28;20061;-73
2022/03/05 06:17:57;;;;;;;6.72;3.95;;;;;;;;;;5006007;28;20022;-72
2022/03/05 06:20:23;;;;;;;5.43;3.63;;;;;;;;;;5006906;28;20033;-73
2022/03/05 06:22:49;;;;;;;5.93;3.65;;;;;;;;;;5006940;28;20466;-73
2022/03/05 06:25:17;;;;;;;5.97;3.63;;;;;;;;;;5008577;28;20026;-73
2022/03/05 06:27:44;;;;;;;6.70;3.53;;;;;;;;;;5008049;28;20022;-73
2022/03/05 06:30:11;;;;;;;9.18;3.58;;;;;;;;;;5003309;28;20066;-73
2022/03/05 06:32:37;;;;;;;9.95;3.58;;;;;;;;;;5001557;28;20034;-73
2022/03/05 06:35:05;;;;;;;6.65;3.72;;;;;;;;;;5004848;28;20033;-73
2022/03/05 06:37:31;;;;;;;5.40;3.72;;;;;;;;;;4989305;28;20387;-74
2022/03/05 06:39:57;;;;;;;7.30;3.42;;;;;;;;;;5008668;28;20587;-73
2022/03/05 06:42:23;;;;;;;10.35;3.38;;;;;;;;;;5005599;28;20045;-73
2022/03/05 06:44:50;;;;;;;6.63;3.63;;;;;;;;;;5009236;28;20054;-73
2022/03/05 06:47:16;;;;;;;5.88;3.67;;;;;;;;;;4993299;28;20566;-73
2022/03/05 06:49:42;;;;;;;9.75;3.78;;;;;;;;;;5007829;28;20112;-72
2022/03/05 06:52:10;;;;;;;6.35;3.67;;;;;;;;;;5007328;28;20066;-72
2022/03/05 06:54:36;;;;;;;6.25;3.53;;;;;;;;;;5009049;28;20365;-73
2022/03/05 06:57:02;;;;;;;6.28;3.72;;;;;;;;;;5007350;28;20030;-73
2022/03/05 06:59:28;;;;;;;8.98;4.13;;;;;;;;;;5010281;28;20054;-72
2022/03/05 07:01:55;;;;;;;7.80;3.78;;;;;;;;;;5005264;28;20026;-73
2022/03/05 07:04:21;;;;;;;4.70;3.33;;;;;;;;;;5010310;28;20748;-73
2022/03/05 07:06:47;;;;;;;7.93;3.78;;;;;;;;;;5014084;28;20092;-73
2022/03/05 07:09:14;;;;;;;5.80;3.20;;;;;;;;;;4992520;28;20024;-73
2022/03/05 07:11:41;;;;;;;5.95;3.58;;;;;;;;;;5013115;28;20094;-72
2022/03/05 07:14:07;;;;;;;6.90;3.47;;;;;;;;;;4990031;28;20507;-73
2022/03/05 07:16:33;;;;;;;5.60;3.90;;;;;;;;;;5011343;28;20034;-73
2022/03/05 07:18:59;;;;;;;5.20;3.50;;;;;;;;;;4995338;28;20034;-73
2022/03/05 07:21:25;;;;;;;4.63;3.67;;;;;;;;;;4992677;28;20713;-73
2022/03/05 07:23:51;;;;;;;7.28;3.83;;;;;;;;;;5012855;28;20038;-72
2022/03/05 07:26:18;;;;;;;5.25;3.85;;;;;;;;;;5007569;28;20095;-73
2022/03/05 07:28:45;;;;;;;7.60;3.45;;;;;;;;;;5007746;28;20030;-73
2022/03/05 07:31:11;;;;;;;9.48;3.90;;;;;;;;;;5012752;28;20034;-72
2022/03/05 07:33:37;;;;;;;4.72;3.65;;;;;;;;;;5011250;28;20041;-72
2022/03/05 07:36:06;;;;;;;5.32;4.32;;;;;;;;;;5014468;28;20030;-72
2022/03/05 07:38:32;;;;;;;7.75;3.40;;;;;;;;;;5010398;28;20022;-73
2022/03/05 07:40:58;;;;;;;4.97;3.50;;;;;;;;;;5008901;28;20391;-73
2022/03/05 07:43:25;;;;;;;6.32;3.78;;;;;;;;;;4993843;28;20034;-73
2022/03/05 07:45:51;;;;;;;7.57;3.88;;;;;;;;;;5004767;28;20026;-73
2022/03/05 07:48:21;;;;;;;5.60;3.42;;;;;;;;;;4991356;28;20034;-73
2022/03/05 07:50:48;;;;;;;8.05;3.80;;;;;;;;;;5012259;28;20660;-73
2022/03/05 07:53:14;;;;;;;7.85;4.70;;;;;;;;;;5010450;28;20627;-72
2022/03/05 07:55:40;;;;;;;12.05;4.45;;;;;;;;;;5012965;28;20026;-73
2022/03/05 07:58:08;;;;;;;6.85;5.13;;;;;;;;;;5008551;28;20492;-73
2022/03/05 08:00:34;;;;;;;8.95;4.75;;;;;;;;;;4993001;28;20034;-73
2022/03/05 08:03:00;;;;;;;6.45;4.00;;;;;;;;;;5011330;28;20022;-73
2022/03/05 08:05:27;;;;;;;9.73;6.28;;;;;;;;;;5011031;28;20026;-73
2022/03/05 08:07:55;;;;;;;6.20;4.43;;;;;;;;;;5006144;28;20483;-73
2022/03/05 08:10:22;;;;;;;9.00;4.03;;;;;;;;;;5009313;28;20480;-73
2022/03/05 08:12:48;;;;;;;5.45;4.25;;;;;;;;;;5009431;28;20064;-73
2022/03/05 08:15:15;;;;;;;12.65;6.25;;;;;;;;;;5011171;28;20034;-72
2022/03/05 08:17:50;;;;;;;30.40;14.02;;;;;;;;;;5008330;28;20030;-73
2022/03/05 08:20:16;;;;;;;10.75;5.85;;;;;;;;;;5007473;28;20045;-73
2022/03/05 08:22:42;;;;;;;6.38;4.35;;;;;;;;;;5006840;28;20041;-73
2022/03/05 08:25:08;;;;;;;4.75;3.17;;;;;;;;;;5010348;28;20431;-74
2022/03/05 08:27:35;;;;;;;22.02;10.00;;;;;;;;;;5010824;28;20072;-73
2022/03/05 08:30:01;;;;;;;16.17;8.00;;;;;;;;;;4989236;28;20029;-73
2022/03/05 08:32:27;;;;;;;9.18;3.67;;;;;;;;;;4993289;28;20592;-73
2022/03/05 08:34:53;;;;;;;5.88;3.90;;;;;;;;;;5010457;28;20025;-73
2022/03/05 08:37:19;;;;;;;9.70;4.20;;;;;;;;;;4992853;28;20021;-73
2022/03/05 08:39:45;;;;;;;5.60;3.50;;;;;;;;;;5009588;28;20032;-73
2022/03/05 08:42:11;;;;;;;6.25;3.25;;;;;;;;;;5009752;28;20559;-74
2022/03/05 08:44:37;;;;;;;5.03;3.83;;;;;;;;;;4986568;28;20428;-74
2022/03/05 08:47:03;;;;;;;4.82;3.63;;;;;;;;;;5006652;28;20030;-74
2022/03/05 08:49:29;;;;;;;5.72;4.03;;;;;;;;;;5009386;28;20097;-75
2022/03/05 08:51:55;;;;;;;9.32;5.45;;;;;;;;;;5006230;28;20087;-74
2022/03/05 08:54:22;;;;;;;10.25;4.03;;;;;;;;;;5009482;28;20064;-74
2022/03/05 08:56:49;;;;;;;12.00;5.35;;;;;;;;;;5009234;28;20487;-75
2022/03/05 08:59:15;;;;;;;7.97;4.97;;;;;;;;;;4992883;28;20029;-74
2022/03/05 09:01:41;;;;;;;7.25;3.97;;;;;;;;;;5007654;28;20018;-75
2022/03/05 09:04:07;;;;;;;5.60;3.42;;;;;;;;;;5008447;28;20025;-75
2022/03/05 09:06:33;;;;;;;8.18;3.60;;;;;;;;;;4990053;28;20058;-75
2022/03/05 09:09:02;;;;;;;6.40;3.60;;;;;;;;;;5008714;28;20025;-75
2022/03/05 09:11:28;;;;;;;5.15;3.53;;;;;;;;;;5008490;28;20033;-75
2022/03/05 09:13:54;;;;;;;6.93;3.35;;;;;;;;;;5005614;28;20061;-73
2022/03/05 09:16:21;;;;;;;6.53;4.03;;;;;;;;;;5006836;28;20084;-75
2022/03/05 09:18:47;;;;;;;7.63;3.80;;;;;;;;;;5009295;28;20645;-75
2022/03/05 09:21:13;;;;;;;6.55;4.25;;;;;;;;;;5007269;28;20028;-74
2022/03/05 09:23:39;;;;;;;8.98;3.95;;;;;;;;;;5007795;28;20126;-74
2022/03/05 09:26:05;;;;;;;5.60;2.60;;;;;;;;;;5007934;28;20033;-75
2022/03/05 09:28:31;;;;;;;5.25;3.10;;;;;;;;;;5008917;28;20037;-75
2022/03/05 09:30:58;;;;;;;6.35;3.00;;;;;;;;;;5006158;28;20496;-75
2022/03/05 09:33:25;;;;;;;7.10;2.80;;;;;;;;;;5010273;28;20054;-75
2022/03/05 09:35:51;;;;;;;8.30;3.15;;;;;;;;;;4985812;28;20037;-75
2022/03/05 09:38:18;;;;;;;5.70;2.67;;;;;;;;;;5007485;28;20037;-74
2022/03/05 09:40:44;;;;;;;3.33;2.55;;;;;;;;;;5009394;28;20044;-74
2022/03/05 09:43:10;;;;;;;6.88;2.97;;;;;;;;;;5010236;28;20480;-74
2022/03/05 09:45:37;;;;;;;7.70;2.97;;;;;;;;;;5003758;28;20038;-75
2022/03/05 09:48:03;;;;;;;9.15;3.25;;;;;;;;;;5008282;28;20521;-75
2022/03/05 09:50:29;;;;;;;4.60;2.85;;;;;;;;;;5002139;28;20112;-75
2022/03/05 09:52:56;;;;;;;5.05;3.38;;;;;;;;;;5009112;28;20030;-75
2022/03/05 09:55:23;;;;;;;9.82;3.38;;;;;;;;;;5009506;28;20584;-75
2022/03/05 09:57:49;;;;;;;8.70;3.20;;;;;;;;;;5005198;28;20048;-74
2022/03/05 10:00:15;;;;;;;6.75;3.13;;;;;;;;;;5006739;28;20196;-74
2022/03/05 10:02:41;;;;;;;4.43;2.58;;;;;;;;;;5009335;28;20026;-74
2022/03/05 10:05:13;;;;;;;5.78;2.60;;;;;;;;;;5009784;28;20033;-75
2022/03/05 10:07:40;;;;;;;3.75;2.33;;;;;;;;;;5007452;28;20044;-74
2022/03/05 10:10:09;;;;;;;5.90;2.40;;;;;;;;;;5009651;28;20034;-74
2022/03/05 10:12:36;;;;;;;5.97;2.53;;;;;;;;;;4991430;28;20025;-74
2022/03/05 10:15:08;;;;;;;4.15;2.30;;;;;;;;;;5007461;28;20034;-75
2022/03/05 10:17:51;;;;;;;4.50;2.97;;;;;;;;;;5007524;28;20496;-75
2022/03/05 10:20:17;;;;;;;7.05;2.95;;;;;;;;;;5008710;28;20162;-75
2022/03/05 10:23:04;;;;;;;9.15;3.17;;;;;;;;;;5009558;28;20061;-74
2022/03/05 10:25:31;;;;;;;4.38;3.13;;;;;;;;;;5004624;28;20100;-74
2022/03/05 10:28:01;;;;;;;4.72;1.95;;;;;;;;;;5008380;28;20026;-74
2022/03/05 10:30:32;;;;;;;6.38;2.40;;;;;;;;;;4992716;28;20034;-76
2022/03/05 10:32:58;;;;;;;6.70;2.80;;;;;;;;;;5008837;28;20033;-75
2022/03/05 10:35:24;;;;;;;6.90;2.28;;;;;;;;;;5009335;28;20533;-74
2022/03/05 10:37:52;;;;;;;4.60;2.30;;;;;;;;;;5013358;28;20045;-74
2022/03/05 10:40:25;;;;;;;3.47;2.60;;;;;;;;;;5011867;28;20646;-74
2022/03/05 10:42:51;;;;;;;6.72;2.20;;;;;;;;;;5013388;28;20033;-74
2022/03/05 10:45:18;;;;;;;7.20;2.58;;;;;;;;;;5012165;28;20379;-74
2022/03/05 10:47:49;;;;;;;5.07;2.47;;;;;;;;;;5007116;28;20112;-75
2022/03/05 10:50:15;;;;;;;6.70;2.10;;;;;;;;;;5009630;28;20046;-74
2022/03/05 10:52:48;;;;;;;6.32;2.22;;;;;;;;;;5013054;28;20387;-74
2022/03/05 10:55:16;;;;;;;4.55;2.00;;;;;;;;;;5011490;28;20029;-73
2022/03/05 10:57:55;;;;;;;4.10;2.20;;;;;;;;;;4995974;28;20499;-74
2022/03/05 11:00:21;;;;;;;4.72;2.55;;;;;;;;;;5012020;28;20705;-75
2022/03/05 11:02:49;;;;;;;8.73;2.10;;;;;;;;;;5013235;28;20118;-74
2022/03/05 11:05:16;;;;;;;4.80;2.17;;;;;;;;;;5013513;28;20029;-75
2022/03/05 11:07:43;;;;;;;4.20;1.75;;;;;;;;;;4990550;28;20456;-74
2022/03/05 11:10:09;;;;;;;4.07;2.45;;;;;;;;;;5011410;28;20554;-75
2022/03/05 11:12:39;;;;;;;3.70;2.10;;;;;;;;;;5013037;28;20525;-75
2022/03/05 11:15:08;;;;;;;6.28;1.92;;;;;;;;;;5011794;28;20030;-75
2022/03/05 11:17:34;;;;;;;4.38;2.20;;;;;;;;;;5012708;28;20029;-75
2022/03/05 11:20:00;;;;;;;2.53;1.70;;;;;;;;;;5013278;28;20040;-75
2022/03/05 11:22:27;;;;;;;2.45;1.80;;;;;;;;;;5012406;28;20026;-75
2022/03/05 11:24:54;;;;;;;4.68;1.90;;;;;;;;;;5012781;28;20056;-75
2022/03/05 11:27:20;;;;;;;4.57;1.80;;;;;;;;;;4993963;28;20026;-75
2022/03/05 11:29:56;;;;;;;3.75;1.88;;;;;;;;;;4993082;28;20482;-75
2022/03/05 11:32:23;;;;;;;4.03;1.80;;;;;;;;;;5011713;28;20087;-75
2022/03/05 11:34:51;;;;;;;4.28;2.10;;;;;;;;;;5012693;28;20057;-75
2022/03/05 11:37:23;;;;;;;4.72;2.05;;;;;;;;;;5009225;28;20034;-75
2022/03/05 11:39:49;;;;;;;5.38;2.10;;;;;;;;;;5007078;28;20391;-75
2022/03/05 11:42:35;;;;;;;3.08;2.13;;;;;;;;;;5011544;28;20022;-75
2022/03/05 11:45:21;;;;;;;4.28;2.03;;;;;;;;;;5001377;28;20485;-76
2022/03/05 11:47:47;;;;;;;4.03;2.40;;;;;;;;;;5008119;28;20048;-76
2022/03/05 11:50:15;;;;;;;5.63;2.17;;;;;;;;;;4993838;28;20423;-76
2022/03/05 11:52:41;;;;;;;2.67;2.28;;;;;;;;;;5004533;28;20022;-76
2022/03/05 11:55:20;;;;;;;3.03;1.90;;;;;;;;;;4994773;28;20030;-75
2022/03/05 11:57:53;;;;;;;3.33;1.90;;;;;;;;;;4987255;28;20584;-75
2022/03/05 12:00:26;;;;;;;2.40;1.90;;;;;;;;;;5011327;28;20034;-76
2022/03/05 12:02:56;;;;;;;4.50;1.95;;;;;;;;;;5010313;28;20701;-75
2022/03/05 12:05:44;;;;;;;5.53;2.42;;;;;;;;;;5011843;28;20042;-75
2022/03/05 12:08:30;;;;;;;3.83;2.10;;;;;;;;;;5011805;28;20514;-75
2022/03/05 12:11:08;;;;;;;2.42;2.00;;;;;;;;;;5010370;28;20053;-76
2022/03/05 12:13:40;;;;;;;4.40;1.90;;;;;;;;;;5010301;28;20048;-75
2022/03/05 12:16:13;;;;;;;9.52;2.05;;;;;;;;;;5011016;28;20032;-75
2022/03/05 12:18:40;;;;;;;2.22;1.90;;;;;;;;;;5012782;28;20029;-75
2022/03/05 12:21:07;;;;;;;4.05;2.15;;;;;;;;;;5011393;28;20061;-75
2022/03/05 12:23:33;;;;;;;3.28;1.90;;;;;;;;;;5009455;28;20053;-75
2022/03/05 12:26:02;;;;;;;4.82;1.80;;;;;;;;;;5005598;28;20026;-75
2022/03/05 12:28:32;;;;;;;4.25;1.88;;;;;;;;;;5011948;28;20033;-75
2022/03/05 12:30:58;;;;;;;2.00;1.63;;;;;;;;;;5001939;28;20084;-75
2022/03/05 12:33:26;;;;;;;3.60;2.00;;;;;;;;;;5006992;28;20061;-76
2022/03/05 12:35:52;;;;;;;6.03;1.90;;;;;;;;;;4999562;28;20073;-76
2022/03/05 12:38:19;;;;;;;4.70;2.15;;;;;;;;;;5011254;28;20160;-75
2022/03/05 12:40:46;;;;;;;3.58;2.20;;;;;;;;;;5009453;28;20037;-75
2022/03/05 12:43:12;;;;;;;3.15;2.40;;;;;;;;;;5011522;28;20476;-75
2022/03/05 12:45:40;;;;;;;4.28;2.40;;;;;;;;;;5003505;28;20129;-74
2022/03/05 12:48:16;;;;;;;4.68;2.10;;;;;;;;;;5008942;28;20033;-75
2022/03/05 12:50:46;;;;;;;3.20;2.00;;;;;;;;;;5001377;28;20030;-75
2022/03/05 12:53:16;;;;;;;4.53;2.03;;;;;;;;;;5008557;28;20030;-75
2022/03/05 12:55:45;;;;;;;3.75;1.85;;;;;;;;;;4999781;28;20034;-74
2022/03/05 12:58:11;;;;;;;4.15;2.03;;;;;;;;;;5007711;28;20022;-74
2022/03/05 13:00:37;;;;;;;4.57;2.67;;;;;;;;;;5010792;28;20558;-75
2022/03/05 13:03:04;;;;;;;3.35;2.53;;;;;;;;;;5007441;28;20081;-76
2022/03/05 13:05:30;;;;;;;3.80;2.08;;;;;;;;;;5011235;28;20034;-75
2022/03/05 13:07:56;;;;;;;4.00;2.53;;;;;;;;;;4992781;28;20492;-75
2022/03/05 13:10:22;;;;;;;3.75;2.10;;;;;;;;;;5000361;28;20035;-76
2022/03/05 13:12:50;;;;;;;3.47;2.00;;;;;;;;;;5008607;28;20438;-76
2022/03/05 13:15:27;;;;;;;4.15;2.03;;;;;;;;;;5009862;28;20453;-75
2022/03/05 13:17:56;;;;;;;2.72;2.13;;;;;;;;;;4990488;28;20092;-75
2022/03/05 13:20:22;;;;;;;4.38;2.17;;;;;;;;;;5009661;28;20495;-77
2022/03/05 13:22:49;;;;;;;3.22;1.90;;;;;;;;;;5009239;28;20559;-75
2022/03/05 13:25:15;;;;;;;3.75;2.40;;;;;;;;;;5009678;28;20419;-77
2022/03/05 13:27:41;;;;;;;5.00;2.30;;;;;;;;;;5010281;28;20379;-76
2022/03/05 13:30:11;;;;;;;5.10;2.60;;;;;;;;;;5008985;28;20033;-77
2022/03/05 13:32:47;;;;;;;3.30;2.05;;;;;;;;;;5010474;28;20092;-76
2022/03/05 13:35:13;;;;;;;2.53;2.30;;;;;;;;;;5009392;28;20049;-76
2022/03/05 13:37:40;;;;;;;3.97;2.25;;;;;;;;;;5008424;28;20030;-78
2022/03/05 13:40:08;;;;;;;4.05;1.83;;;;;;;;;;5005463;28;20387;-78
2022/03/05 13:42:35;;;;;;;3.90;2.33;;;;;;;;;;5005702;28;20566;-76
2022/03/05 13:45:03;;;;;;;5.13;2.83;;;;;;;;;;5004657;28;20089;-79
2022/03/05 13:47:29;;;;;;;4.07;2.00;;;;;;;;;;5013341;28;20022;-77
2022/03/05 13:50:04;;;;;;;2.83;1.70;;;;;;;;;;5007384;28;20022;-76
2022/03/05 13:52:31;;;;;;;3.42;1.77;;;;;;;;;;5011026;28;20641;-76
2022/03/05 13:55:13;;;;;;;3.28;2.03;;;;;;;;;;4994147;28;20111;-75
2022/03/05 13:57:44;;;;;;;3.28;2.25;;;;;;;;;;5007161;28;20022;-76
2022/03/05 14:00:12;;;;;;;2.92;1.90;;;;;;;;;;5007043;28;20488;-77
2022/03/05 14:02:38;;;;;;;3.10;2.10;;;;;;;;;;5007302;28;20544;-77
2022/03/05 14:05:09;;;;;;;4.13;1.90;;;;;;;;;;4999626;28;20036;-78
2022/03/05 14:07:45;;;;;;;3.58;2.20;;;;;;;;;;5006658;28;20025;-77
2022/03/05 14:10:12;;;;;;;2.78;2.10;;;;;;;;;;5008069;28;20033;-76
2022/03/05 14:12:39;;;;;;;6.80;3.03;;;;;;;;;;5009003;28;20026;-75
2022/03/05 14:15:07;;;;;;;2.67;2.20;;;;;;;;;;4990750;28;20040;-75
2022/03/05 14:17:37;;;;;;;6.38;2.60;;;;;;;;;;5018308;28;20032;-77
2022/03/05 14:20:08;;;;;;;4.10;2.20;;;;;;;;;;5011328;28;20029;-76
2022/03/05 14:22:38;;;;;;;9.20;2.83;;;;;;;;;;5010214;28;20516;-76
2022/03/05 14:25:05;;;;;;;4.15;2.35;;;;;;;;;;5009887;28;20040;-76
2022/03/05 14:27:31;;;;;;;4.97;2.58;;;;;;;;;;5009318;28;20030;-75
2022/03/05 14:29:57;;;;;;;4.63;2.15;;;;;;;;;;5010410;28;20032;-76
2022/03/05 14:32:23;;;;;;;5.55;2.10;;;;;;;;;;5009279;28;20041;-79
2022/03/05 14:34:49;;;;;;;6.97;2.60;;;;;;;;;;5010063;28;20483;-77
2022/03/05 14:37:16;;;;;;;2.75;2.10;;;;;;;;;;5010137;28;20066;-77
2022/03/05 14:39:42;;;;;;;6.03;3.25;;;;;;;;;;5010184;28;20034;-77